• Join FlightAware (Why Join?)
  • Login
  • US Flag 
02:47AM EDT


 

Airport Tracker/Info


-or-


 

Live Flight TrackerFlight Track Log ✈ N960DL ✈ 12-Jun-2013 ✈ KATL - KGRR

Flight Track Log - Related Links

Times and Time Zones

All times are in EDT time to prevent confusion due to time zone crossing. See the N960DL flight status page for this flight to view local times or setup timezone preferences in your user account.

Time Position Orientation Groundspeed Altitude Reporting Facility
EDT Latitude Longitude Course Direction KTS MPH feet Rate Location/Type
03:47PM 33.6500 -84.4500 323° Northwest 150 173 2,100  Level Atlanta TRACON
03:48PM 33.6667 -84.5000 292° West 229 264 3,400 2,220 Climbing Atlanta TRACON
03:49PM 33.7000 -84.5833 296° West 264 304 6,400 2,880 Climbing Atlanta TRACON
03:50PM 33.9197 -84.2530 320° Northwest  Level FlightAware Approximate
03:50PM 33.7333 -84.6667 296° West 291 335 9,200  Level Atlanta TRACON
03:51PM 34.0113 -84.3446 320° Northwest  Level FlightAware Approximate
03:51PM 33.7833 -84.7500 306° West 332 382 10,000  Level Atlanta TRACON
03:52PM 34.1071 -84.4231 323° Northwest  Level FlightAware Approximate
03:52PM 33.8833 -84.7500 360° North 389 448 11,800  Level Atlanta TRACON
03:52PM 33.9300 -84.7297 20° North 422 486 12,900 1,440 Climbing Atlanta Center
03:53PM 34.0367 -84.6906 17° North 424 488 14,000 840 Climbing Atlanta Center
03:54PM 34.1350 -84.6536 17° North 377 434 14,600 1,620 Climbing Atlanta Center
03:55PM 34.2186 -84.6217 18° North 346 398 17,300 1,740 Climbing Atlanta Center
03:56PM 34.3106 -84.6022 10° North 323 372 18,100 840 Climbing Atlanta Center
03:57PM 34.4064 -84.6253 349° North 365 420 19,000 1,200 Climbing Atlanta Center
03:58PM 34.5211 -84.6514 349° North 401 461 20,600 1,560 Climbing Atlanta Center
03:59PM 34.6400 -84.6850 347° North 429 494 22,200 1,500 Climbing Atlanta Center
04:00PM 34.7733 -84.7164 349° North 434 499 23,700 1,380 Climbing Atlanta Center
04:01PM 34.8983 -84.7478 348° North 444 511 25,000 600 Climbing Atlanta Center
04:02PM 35.0233 -84.7819 347° North 449 517 25,000  Level Atlanta Center
04:03PM 35.1442 -84.8108 349° North 449 517 25,000 480 Level Atlanta Center
04:04PM 35.2650 -84.8400 349° North 449 517 26,000 1,320 Climbing Atlanta Center
04:05PM 35.3900 -84.8719 348° North 449 517 27,700 1,800 Climbing Atlanta Center
04:06PM 35.5086 -84.9036 348° North 449 517 29,700 1,860 Climbing Atlanta Center
04:07PM 35.6253 -84.9331 348° North 444 511 31,500 1,140 Climbing Atlanta Center
04:08PM 35.7356 -84.9622 348° North 423 487 32,000 600 Climbing Atlanta Center
04:09PM 35.8461 -84.9842 351° North 423 487 32,700 960 Climbing Atlanta Center
04:10PM 35.9772 -85.0214 347° North 427 491 34,000 600 Climbing Indianapolis Center
04:11PM 36.0886 -85.0481 349° North 413 475 34,000  Level Indianapolis Center
04:13PM 36.1997 -85.0756 349° North 406 467 34,000  Level Indianapolis Center
04:14PM 36.3114 -85.1047 348° North 407 468 34,000  Level Indianapolis Center
04:15PM 36.4231 -85.1339 348° North 411 473 34,000  Level Indianapolis Center
04:16PM 36.5350 -85.1611 349° North 409 471 34,000  Level Indianapolis Center
04:17PM 36.6478 -85.1856 350° North 409 471 34,000  Level Indianapolis Center
04:18PM 36.7817 -85.2214 348° North 411 473 34,000  Level Indianapolis Center
04:19PM 36.8933 -85.2528 347° North 409 471 34,000  Level Indianapolis Center
04:20PM 37.0067 -85.2808 349° North 415 478 34,000  Level Indianapolis Center
04:21PM 37.1275 -85.2861 358° North 421 484 34,000  Level Indianapolis Center
04:22PM 37.2456 -85.2897 359° North 422 486 34,000  Level Indianapolis Center
04:23PM 37.3633 -85.2931 359° North 421 484 34,000  Level Indianapolis Center
04:24PM 37.5025 -85.2983 358° North 425 489 34,000  Level Indianapolis Center
04:25PM 37.6233 -85.3033 358° North 429 494 34,000  Level Indianapolis Center
04:26PM 37.7444 -85.3069 359° North 432 497 34,000  Level Indianapolis Center
04:27PM 37.8528 -85.3100 359° North 437 503 34,000  Level Indianapolis Center
04:28PM 38.0003 -85.3164 358° North 441 507 34,000  Level Indianapolis Center
04:29PM 38.1228 -85.3194 359° North 440 506 34,000  Level Indianapolis Center
04:30PM 38.2442 -85.3247 358° North 436 502 34,000  Level Indianapolis Center
04:31PM 38.3644 -85.3294 358° North 433 498 34,000  Level Indianapolis Center
04:32PM 38.4861 -85.3350 358° North 435 501 34,000  Level Indianapolis Center
04:33PM 38.6061 -85.3389 359° North 432 497 34,000  Level Indianapolis Center
04:34PM 38.7328 -85.3442 358° North 433 498 34,000  Level Indianapolis Center
04:35PM 38.8542 -85.3469 359° North 435 501 34,000  Level Indianapolis Center
04:36PM 38.9989 -85.3517 359° North 436 502 34,000  Level Indianapolis Center
04:37PM 39.1200 -85.3542 359° North 435 501 34,000  Level Indianapolis Center
04:38PM 39.2403 -85.3592 358° North 435 501 34,000  Level Indianapolis Center
04:39PM 39.3625 -85.3614 359° North 440 506 34,000  Level Indianapolis Center
04:40PM 39.4850 -85.3667 358° North 441 507 34,000  Level Indianapolis Center
04:41PM 39.6311 -85.3717 358° North 441 507 34,000  Level Indianapolis Center
04:43PM 39.7525 -85.3756 359° North 440 506 34,000 -120 Level Indianapolis Center
04:44PM 39.8728 -85.3797 358° North 436 502 33,800 -960 Descending Indianapolis Center
04:45PM 39.9947 -85.3833 359° North 441 507 32,100 -900 Descending Indianapolis Center
04:46PM 40.1153 -85.3886 358° North 437 503 32,000 -60 Descending Indianapolis Center
04:47PM 40.2614 -85.3961 358° North 440 506 32,000  Level Indianapolis Center
04:48PM 40.3861 -85.4028 358° North 450 518 32,000  Level Indianapolis Center
04:48PM 40.4619 -85.4050 359° North 451 519 32,000  Level Chicago Center
04:49PM 40.5864 -85.4117 358° North 450 518 32,000  Level Chicago Center
04:50PM 40.7189 -85.4172 358° North 445 512 32,000  Level Chicago Center
04:51PM 40.8425 -85.4236 358° North 445 512 32,000 -540 Level Chicago Center
04:52PM 40.9661 -85.4278 359° North 445 512 31,000 -1,800 Descending Chicago Center
04:54PM 41.1161 -85.4308 359° North 450 518 28,400 -2,340 Descending Chicago Center
04:55PM 41.2397 -85.4333 359° North 447 514 26,200 -1,200 Descending Chicago Center
04:56PM 41.3603 -85.4372 359° North 437 503 26,000 -120 Descending Chicago Center
04:57PM 41.4797 -85.4436 358° North 432 497 26,000 -180 Level Chicago Center
04:58PM 41.5986 -85.4497 358° North 433 498 25,700 -900 Descending Chicago Center
04:59PM 41.7322 -85.4542 359° North 436 502 24,200 -1,380 Descending Chicago Center
05:00PM 41.8472 -85.4586 358° North 417 480 22,900 -1,080 Descending Chicago Center
05:01PM 41.9525 -85.4633 358° North 384 442 22,000 -1,440 Descending Chicago Center
05:02PM 42.0661 -85.4683 358° North 378 435 20,000 -1,740 Descending Chicago Center
05:03PM 42.1719 -85.4717 359° North 383 441 18,500 -1,500 Descending Chicago Center
05:04PM 42.2694 -85.4744 359° North 361 415 17,000 -2,220 Descending Chicago Center
05:05PM 42.3850 -85.4839 357° North 348 400 14,000 -2,700 Descending Chicago Center
05:06PM 42.4647 -85.5386 333° Northwest 323 372 11,500 -1,500 Descending Chicago Center
05:07PM 42.5378 -85.5942 331° Northwest 302 348 10,900 -1,020 Descending Chicago Center
05:08PM 42.6031 -85.6436 331° Northwest 275 316 9,400 -1,500 Descending Chicago Center